createdAt,value
2017-06-22T00:00:08.213Z,17.26
2017-06-22T00:00:57.275Z,17.24
2017-06-22T00:01:46.316Z,17.22
2017-06-22T00:02:34.372Z,17.22
2017-06-22T00:03:29.403Z,17.22
2017-06-22T00:04:23.443Z,17.19
2017-06-22T00:05:17.464Z,17.18
2017-06-22T00:06:12.828Z,17.15
2017-06-22T00:07:06.594Z,17.11
2017-06-22T00:08:00.642Z,17.08
2017-06-22T00:08:55.588Z,17.06
2017-06-22T00:09:49.700Z,17.11
2017-06-22T00:10:44.515Z,17.13
2017-06-22T00:11:38.609Z,17.10
2017-06-22T00:12:38.644Z,17.10
2017-06-22T00:13:33.945Z,17.20
2017-06-22T00:14:22.687Z,17.11
2017-06-22T00:15:22.718Z,17.04
2017-06-22T00:16:17.758Z,16.94
2017-06-22T00:17:11.814Z,16.88
2017-06-22T00:18:06.084Z,16.84
2017-06-22T00:18:59.904Z,16.80
2017-06-22T00:19:54.001Z,16.78
2017-06-22T00:20:59.989Z,16.72
2017-06-22T00:21:54.999Z,16.67
2017-06-22T00:22:50.275Z,16.60
2017-06-22T00:23:51.266Z,16.57
2017-06-22T00:24:39.323Z,16.55
2017-06-22T00:25:27.159Z,16.54
2017-06-22T00:26:16.260Z,16.52
2017-06-22T00:27:04.295Z,16.47
2017-06-22T00:27:52.400Z,16.44
2017-06-22T00:28:41.659Z,16.36
2017-06-22T00:29:35.525Z,16.37
2017-06-22T00:30:35.467Z,16.36
2017-06-22T00:31:35.729Z,16.34
2017-06-22T00:32:29.779Z,16.35
2017-06-22T00:33:24.872Z,16.43
2017-06-22T00:34:12.624Z,16.44
2017-06-22T00:35:06.635Z,16.40
2017-06-22T00:35:55.965Z,16.38
2017-06-22T00:36:44.730Z,16.35
2017-06-22T00:37:33.063Z,16.32
2017-06-22T00:38:21.053Z,16.28
2017-06-22T00:39:10.116Z,16.24
2017-06-22T00:40:04.095Z,16.21
2017-06-22T00:40:52.209Z,16.20
2017-06-22T00:41:40.349Z,16.18
2017-06-22T00:42:28.414Z,16.16
2017-06-22T00:43:17.365Z,16.11
2017-06-22T00:44:05.117Z,16.06
2017-06-22T00:44:53.187Z,16.02
2017-06-22T00:45:42.254Z,16.00
2017-06-22T00:46:30.518Z,15.99
2017-06-22T00:47:18.434Z,15.98
2017-06-22T00:48:07.689Z,15.93
2017-06-22T00:49:02.689Z,15.92
2017-06-22T00:49:50.562Z,15.90
2017-06-22T00:50:38.772Z,15.97
2017-06-22T00:51:27.807Z,15.95
2017-06-22T00:52:15.844Z,15.88
2017-06-22T00:53:04.017Z,15.87
2017-06-22T00:53:52.953Z,15.81
2017-06-22T00:54:40.998Z,15.77
2017-06-22T00:55:30.075Z,15.74
2017-06-22T00:56:18.171Z,15.70
2017-06-22T00:57:06.123Z,15.66
2017-06-22T00:57:55.307Z,15.63
2017-06-22T00:58:43.240Z,15.56
2017-06-22T00:59:31.321Z,15.50
2017-06-22T01:00:20.326Z,15.48
2017-06-22T01:01:08.374Z,15.42
2017-06-22T01:01:56.428Z,15.40
2017-06-22T01:02:45.467Z,15.36
2017-06-22T01:03:33.506Z,15.35
2017-06-22T01:04:21.512Z,15.30
2017-06-22T01:05:10.821Z,15.27
2017-06-22T01:05:58.601Z,15.22
2017-06-22T01:06:46.699Z,15.22
2017-06-22T01:07:34.695Z,15.20
2017-06-22T01:08:22.810Z,15.21
2017-06-22T01:09:17.837Z,15.19
2017-06-22T01:10:05.841Z,15.16
2017-06-22T01:10:54.021Z,15.15
2017-06-22T01:11:41.943Z,15.10
2017-06-22T01:12:31.027Z,15.06
2017-06-22T01:13:19.220Z,15.04
2017-06-22T01:14:07.028Z,15.01
2017-06-22T01:14:56.108Z,14.94
2017-06-22T01:15:44.197Z,14.92
2017-06-22T01:16:32.211Z,14.88
2017-06-22T01:17:21.301Z,14.84
2017-06-22T01:18:09.472Z,14.80
2017-06-22T01:18:57.304Z,14.81
2017-06-22T01:19:46.418Z,14.77
2017-06-22T01:20:34.487Z,14.76
2017-06-22T01:21:22.482Z,14.74
2017-06-22T01:22:11.557Z,14.72
2017-06-22T01:22:59.609Z,14.71
2017-06-22T01:23:53.669Z,14.68
2017-06-22T01:24:41.745Z,14.66
2017-06-22T01:25:30.785Z,14.64
2017-06-22T01:26:19.817Z,14.62
2017-06-22T01:27:08.803Z,14.60
2017-06-22T01:27:56.845Z,14.58
2017-06-22T01:28:45.955Z,14.55
2017-06-22T01:29:33.956Z,14.56
2017-06-22T01:30:21.894Z,14.66
2017-06-22T01:31:09.891Z,14.64
2017-06-22T01:31:59.091Z,14.61
2017-06-22T01:32:47.133Z,14.57
2017-06-22T01:33:35.244Z,14.55
2017-06-22T01:34:22.992Z,14.54
2017-06-22T01:35:17.106Z,14.55
2017-06-22T01:36:06.387Z,14.56
2017-06-22T01:36:54.350Z,14.60
2017-06-22T01:37:43.434Z,14.62
2017-06-22T01:38:31.473Z,14.66
2017-06-22T01:39:19.495Z,14.64
2017-06-22T01:40:09.009Z,14.62
2017-06-22T01:40:56.629Z,14.60
2017-06-22T01:41:44.852Z,14.54
2017-06-22T01:42:32.901Z,14.54
2017-06-22T01:43:21.758Z,14.51
2017-06-22T01:44:09.844Z,14.52
2017-06-22T01:44:57.860Z,14.50
2017-06-22T01:45:46.982Z,14.49
2017-06-22T01:46:34.940Z,14.49
2017-06-22T01:47:23.118Z,14.49
2017-06-22T01:48:12.096Z,14.48
2017-06-22T01:49:01.097Z,14.47
2017-06-22T01:49:49.133Z,14.42
2017-06-22T01:50:37.200Z,14.40
2017-06-22T01:51:25.227Z,14.38
2017-06-22T01:52:13.307Z,14.34
2017-06-22T01:53:02.400Z,14.33
2017-06-22T01:53:50.387Z,14.33
2017-06-22T01:54:38.199Z,14.28
2017-06-22T01:55:27.411Z,14.28
2017-06-22T01:56:15.255Z,14.26
2017-06-22T01:57:03.395Z,14.24
2017-06-22T01:57:51.374Z,14.25
2017-06-22T01:58:45.867Z,14.26
2017-06-22T01:59:34.399Z,14.27
2017-06-22T02:00:23.565Z,14.26
2017-06-22T02:01:12.800Z,14.24
2017-06-22T02:02:00.808Z,14.28
2017-06-22T02:02:49.853Z,14.26
2017-06-22T02:03:37.944Z,14.30
2017-06-22T02:04:26.021Z,14.33
2017-06-22T02:05:14.760Z,14.30
2017-06-22T02:06:02.903Z,14.27
2017-06-22T02:06:51.192Z,14.27
2017-06-22T02:07:40.068Z,14.29
2017-06-22T02:08:29.216Z,14.28
2017-06-22T02:09:23.245Z,14.28
2017-06-22T02:10:24.252Z,14.31
2017-06-22T02:11:18.398Z,14.35
2017-06-22T02:12:18.485Z,14.45
2017-06-22T02:13:13.366Z,14.48
2017-06-22T02:14:08.178Z,14.54
2017-06-22T02:15:08.411Z,14.61
2017-06-22T02:16:03.544Z,14.64
2017-06-22T02:16:58.560Z,14.62
2017-06-22T02:17:58.540Z,14.62
2017-06-22T02:18:53.643Z,14.60
2017-06-22T02:19:48.637Z,14.60
2017-06-22T02:20:54.641Z,14.56
2017-06-22T02:21:48.789Z,14.52
2017-06-22T02:22:48.805Z,14.50
2017-06-22T02:23:43.825Z,14.44
2017-06-22T02:24:49.582Z,14.40
2017-06-22T02:25:44.680Z,14.42
2017-06-22T02:26:38.697Z,14.40
2017-06-22T02:27:38.773Z,14.42
2017-06-22T02:28:38.978Z,14.46
2017-06-22T02:29:38.875Z,14.48
2017-06-22T02:30:39.786Z,14.48
2017-06-22T02:31:40.868Z,14.50
2017-06-22T02:32:34.886Z,14.52
2017-06-22T02:33:35.469Z,14.49
2017-06-22T02:34:29.946Z,14.45
2017-06-22T02:35:25.007Z,14.42
2017-06-22T02:36:26.117Z,14.44
2017-06-22T02:37:27.076Z,14.42
2017-06-22T02:38:27.091Z,14.41
2017-06-22T02:39:28.217Z,14.40
2017-06-22T02:40:29.183Z,14.43
2017-06-22T02:41:23.192Z,14.46
2017-06-22T02:42:23.273Z,14.44
2017-06-22T02:43:18.292Z,14.43
2017-06-22T02:44:13.353Z,14.44
2017-06-22T02:45:19.692Z,14.48
2017-06-22T02:46:13.402Z,14.46
2017-06-22T02:47:13.455Z,14.48
2017-06-22T02:48:08.828Z,14.46
2017-06-22T02:49:03.502Z,14.47
2017-06-22T02:50:03.687Z,14.47
2017-06-22T02:50:58.767Z,14.44
2017-06-22T02:51:53.675Z,14.42
2017-06-22T02:52:53.790Z,14.44
2017-06-22T02:53:49.144Z,14.44
2017-06-22T02:54:43.788Z,14.43
2017-06-22T02:55:43.908Z,14.44
2017-06-22T02:56:38.882Z,14.42
2017-06-22T02:57:33.869Z,14.42
2017-06-22T02:58:27.880Z,14.38
2017-06-22T02:59:27.966Z,14.39
2017-06-22T03:00:23.095Z,14.41
2017-06-22T03:01:23.026Z,14.40
2017-06-22T03:02:24.078Z,14.43
2017-06-22T03:03:18.118Z,14.44
2017-06-22T03:04:19.128Z,14.44
2017-06-22T03:05:20.404Z,14.47
2017-06-22T03:06:20.235Z,14.50
2017-06-22T03:07:15.356Z,14.52
2017-06-22T03:08:10.598Z,14.52
2017-06-22T03:09:10.587Z,14.53
2017-06-22T03:10:05.617Z,14.56
2017-06-22T03:11:05.589Z,14.54
2017-06-22T03:12:06.509Z,14.51
2017-06-22T03:13:06.824Z,14.52
2017-06-22T03:14:01.716Z,14.53
2017-06-22T03:15:01.614Z,14.57
2017-06-22T03:15:56.767Z,14.54
2017-06-22T03:16:51.664Z,14.56
2017-06-22T03:17:45.696Z,14.56
2017-06-22T03:18:46.711Z,14.58
2017-06-22T03:19:40.787Z,14.64
2017-06-22T03:20:28.928Z,14.68
2017-06-22T03:21:29.233Z,14.69
2017-06-22T03:22:23.972Z,14.62
2017-06-22T03:23:23.950Z,14.72
2017-06-22T03:24:24.943Z,14.64
2017-06-22T03:25:25.253Z,14.64
2017-06-22T03:26:25.021Z,14.60
2017-06-22T03:27:25.317Z,14.60
2017-06-22T03:28:25.070Z,14.55
2017-06-22T03:29:25.425Z,14.62
2017-06-22T03:30:25.515Z,14.66
2017-06-22T03:31:26.415Z,14.68
2017-06-22T03:32:25.488Z,14.68
2017-06-22T03:33:25.486Z,14.68
2017-06-22T03:34:25.524Z,14.76
2017-06-22T03:35:25.596Z,14.76
2017-06-22T03:36:25.627Z,14.79
2017-06-22T03:37:25.678Z,14.83
2017-06-22T03:38:25.848Z,14.84
2017-06-22T03:39:25.746Z,14.87
2017-06-22T03:40:25.832Z,14.84
2017-06-22T03:41:25.902Z,14.84
2017-06-22T03:42:25.866Z,14.90
2017-06-22T03:43:25.847Z,14.90
2017-06-22T03:44:25.934Z,14.80
2017-06-22T03:45:25.944Z,14.86
2017-06-22T03:46:25.984Z,14.87
2017-06-22T03:47:26.044Z,14.85
2017-06-22T03:48:26.073Z,14.90
2017-06-22T03:49:26.032Z,14.90
2017-06-22T03:50:26.143Z,14.96
2017-06-22T03:51:26.191Z,14.92
2017-06-22T03:52:26.228Z,14.97
2017-06-22T03:53:26.308Z,14.95
2017-06-22T03:54:26.325Z,15.02
2017-06-22T03:55:26.294Z,14.99
2017-06-22T03:56:26.833Z,15.06
2017-06-22T03:57:26.435Z,15.06
2017-06-22T03:58:26.495Z,15.14
2017-06-22T03:59:26.563Z,15.15
2017-06-22T04:00:26.528Z,15.13
2017-06-22T04:01:26.652Z,15.26
2017-06-22T04:02:26.633Z,15.21
2017-06-22T04:03:26.619Z,15.28
2017-06-22T04:04:26.698Z,15.34
2017-06-22T04:05:26.933Z,15.35
2017-06-22T04:06:32.739Z,15.38
2017-06-22T04:07:27.848Z,15.40
2017-06-22T04:08:21.792Z,15.43
2017-06-22T04:09:21.841Z,15.46
2017-06-22T04:10:16.923Z,15.44
2017-06-22T04:11:11.983Z,15.50
2017-06-22T04:12:12.034Z,15.48
2017-06-22T04:13:07.123Z,15.54
2017-06-22T04:14:02.363Z,15.58
2017-06-22T04:14:56.155Z,15.60
2017-06-22T04:16:02.305Z,15.62
2017-06-22T04:16:56.229Z,15.58
2017-06-22T04:17:57.250Z,15.58
2017-06-22T04:18:52.287Z,15.64
2017-06-22T04:19:53.344Z,15.63
2017-06-22T04:20:47.410Z,15.63
2017-06-22T04:21:47.431Z,15.64
2017-06-22T04:22:42.493Z,15.67
2017-06-22T04:23:37.517Z,15.69
2017-06-22T04:24:37.529Z,15.75
2017-06-22T04:25:32.579Z,15.77
2017-06-22T04:26:27.655Z,15.78
2017-06-22T04:27:21.637Z,15.80
2017-06-22T04:28:22.728Z,15.78
2017-06-22T04:29:17.750Z,15.81
2017-06-22T04:30:17.799Z,15.88
2017-06-22T04:31:17.815Z,15.94
2017-06-22T04:32:17.884Z,15.88
2017-06-22T04:33:17.908Z,15.96
2017-06-22T04:34:17.945Z,15.94
2017-06-22T04:35:17.970Z,16.02
2017-06-22T04:36:18.059Z,16.02
2017-06-22T04:37:18.086Z,16.16
2017-06-22T04:38:18.080Z,16.24
2017-06-22T04:39:25.863Z,16.34
2017-06-22T04:40:24.229Z,16.47
2017-06-22T04:41:25.263Z,16.54
2017-06-22T04:42:26.277Z,16.66
2017-06-22T04:43:27.290Z,16.80
2017-06-22T04:44:21.352Z,16.93
2017-06-22T04:45:21.407Z,16.98
2017-06-22T04:46:16.449Z,17.13
2017-06-22T04:47:11.523Z,17.15
2017-06-22T04:48:05.549Z,17.24
2017-06-22T04:49:06.575Z,17.41
2017-06-22T04:50:07.584Z,17.42
2017-06-22T04:51:07.673Z,17.55
2017-06-22T04:52:07.745Z,17.65
2017-06-22T04:53:02.789Z,17.79
2017-06-22T04:54:02.810Z,18.06
2017-06-22T04:55:02.834Z,18.34
2017-06-22T04:56:02.882Z,18.70
2017-06-22T04:57:03.051Z,18.97
2017-06-22T04:58:02.985Z,19.32
2017-06-22T04:59:03.023Z,19.65
2017-06-22T05:00:03.062Z,19.94
2017-06-22T05:01:03.090Z,19.92
2017-06-22T05:02:03.139Z,20.26
2017-06-22T05:03:09.233Z,20.61
2017-06-22T05:04:04.236Z,20.83
2017-06-22T05:04:58.305Z,21.03
2017-06-22T05:05:59.380Z,20.98
2017-06-22T05:07:00.343Z,20.98
2017-06-22T05:08:00.369Z,20.98
2017-06-22T05:09:00.459Z,20.92
2017-06-22T05:09:55.517Z,20.78
2017-06-22T05:10:55.549Z,20.67
2017-06-22T05:11:55.602Z,20.54
2017-06-22T05:12:55.623Z,20.44
2017-06-22T05:13:55.740Z,20.30
2017-06-22T05:14:55.902Z,20.20
2017-06-22T05:15:55.721Z,20.06
2017-06-22T05:16:55.830Z,20.01
2017-06-22T05:17:55.849Z,19.94
2017-06-22T05:18:55.921Z,19.98
2017-06-22T05:19:55.948Z,19.91
2017-06-22T05:20:56.012Z,19.92
2017-06-22T05:21:56.036Z,19.96
2017-06-22T05:22:56.126Z,20.11
2017-06-22T05:23:56.133Z,20.03
2017-06-22T05:24:56.140Z,20.27
2017-06-22T05:25:56.224Z,20.64
2017-06-22T05:26:56.246Z,21.05
2017-06-22T05:27:56.312Z,21.18
2017-06-22T05:28:56.365Z,21.37
2017-06-22T05:30:02.345Z,21.22
2017-06-22T05:30:57.492Z,21.48
2017-06-22T05:31:57.523Z,21.85
2017-06-22T05:32:57.533Z,21.96
2017-06-22T05:33:57.562Z,22.60
2017-06-22T05:34:57.646Z,22.98
2017-06-22T05:35:57.724Z,23.29
2017-06-22T05:36:57.710Z,23.47
2017-06-22T05:37:57.784Z,23.57
2017-06-22T05:38:58.858Z,23.89
2017-06-22T05:39:53.908Z,24.12
2017-06-22T05:40:49.037Z,24.37
2017-06-22T05:41:49.084Z,24.58
2017-06-22T05:42:44.096Z,24.47
2017-06-22T05:43:38.190Z,24.56
2017-06-22T05:44:32.278Z,24.62
2017-06-22T05:45:21.356Z,24.57
2017-06-22T05:46:10.422Z,24.60
2017-06-22T05:47:04.507Z,24.84
2017-06-22T05:47:58.549Z,25.03
2017-06-22T05:48:46.624Z,25.15
2017-06-22T05:49:40.761Z,25.19
2017-06-22T05:50:29.776Z,25.29
2017-06-22T05:51:23.843Z,25.47
2017-06-22T05:52:11.948Z,25.62
2017-06-22T05:53:00.019Z,25.66
2017-06-22T05:53:54.178Z,25.97
2017-06-22T05:54:54.160Z,26.25
2017-06-22T05:55:49.261Z,26.26
2017-06-22T05:56:49.342Z,26.36
2017-06-22T05:57:50.385Z,26.60
2017-06-22T05:58:45.435Z,26.64
2017-06-22T05:59:40.553Z,26.67
2017-06-22T06:00:34.671Z,26.74
2017-06-22T06:01:28.756Z,26.72
2017-06-22T06:02:17.729Z,26.98
2017-06-22T06:03:05.944Z,27.19
2017-06-22T06:04:00.923Z,26.91
2017-06-22T06:05:01.025Z,26.79
2017-06-22T06:05:55.094Z,27.16
2017-06-22T06:06:50.137Z,27.42
2017-06-22T06:07:50.199Z,27.61
2017-06-22T06:08:50.338Z,27.78
2017-06-22T06:09:44.389Z,27.88
2017-06-22T06:10:39.437Z,28.28
2017-06-22T06:11:39.553Z,28.44
2017-06-22T06:12:33.644Z,28.59
2017-06-22T06:13:27.710Z,28.62
2017-06-22T06:14:16.714Z,28.64
2017-06-22T06:15:11.829Z,28.64
2017-06-22T06:16:05.941Z,28.68
2017-06-22T06:16:54.020Z,28.84
2017-06-22T06:17:43.100Z,29.15
2017-06-22T06:18:38.155Z,29.21
2017-06-22T06:19:32.320Z,29.34
2017-06-22T06:20:26.328Z,29.58
2017-06-22T06:21:26.504Z,29.69
2017-06-22T06:22:21.432Z,29.49
2017-06-22T06:23:16.523Z,29.46
2017-06-22T06:24:10.658Z,29.02
2017-06-22T06:25:04.650Z,29.22
2017-06-22T06:25:58.834Z,29.26
2017-06-22T06:26:52.777Z,29.21
2017-06-22T06:27:47.959Z,29.48
2017-06-22T06:28:37.026Z,29.58
2017-06-22T06:29:31.104Z,29.38
2017-06-22T06:30:25.118Z,29.64
2017-06-22T06:31:20.020Z,29.76
2017-06-22T06:32:09.110Z,29.82
2017-06-22T06:33:04.535Z,29.93
2017-06-22T06:33:59.516Z,30.22
2017-06-22T06:34:59.593Z,30.11
2017-06-22T06:36:00.744Z,30.29
2017-06-22T06:36:55.733Z,30.43
2017-06-22T06:37:49.851Z,30.18
2017-06-22T06:38:37.760Z,30.06
2017-06-22T06:39:31.781Z,30.25
2017-06-22T06:40:32.084Z,30.66
2017-06-22T06:41:32.072Z,31.26
2017-06-22T06:42:38.016Z,31.54
2017-06-22T06:43:32.077Z,31.51
2017-06-22T06:44:26.460Z,31.48
2017-06-22T06:45:15.219Z,31.66
2017-06-22T06:46:03.324Z,31.49
2017-06-22T06:46:51.590Z,31.29
2017-06-22T06:47:46.667Z,31.26
2017-06-22T06:48:41.818Z,31.24
2017-06-22T06:49:35.637Z,31.58
2017-06-22T06:50:29.949Z,31.67
2017-06-22T06:51:24.078Z,31.91
2017-06-22T06:52:19.197Z,31.96
2017-06-22T06:53:13.439Z,32.26
2017-06-22T06:54:07.368Z,32.33
2017-06-22T06:55:01.260Z,31.75
2017-06-22T06:56:01.445Z,31.70
2017-06-22T06:56:55.571Z,31.84
2017-06-22T06:57:49.467Z,31.46
2017-06-22T06:58:43.598Z,31.54
2017-06-22T06:59:37.622Z,31.46
2017-06-22T07:00:32.793Z,31.74
2017-06-22T07:01:26.932Z,31.78
2017-06-22T07:02:20.769Z,31.96
2017-06-22T07:03:15.168Z,32.12
2017-06-22T07:04:14.958Z,32.24
2017-06-22T07:05:16.052Z,32.36
2017-06-22T07:06:10.118Z,32.32
2017-06-22T07:07:04.272Z,32.32
2017-06-22T07:08:04.571Z,32.27
2017-06-22T07:08:59.774Z,32.51
2017-06-22T07:09:48.754Z,32.64
2017-06-22T07:10:42.761Z,32.92
2017-06-22T07:11:31.873Z,33.30
2017-06-22T07:12:19.956Z,33.58
2017-06-22T07:13:14.250Z,33.73
2017-06-22T07:14:08.120Z,33.85
2017-06-22T07:15:02.195Z,33.57
2017-06-22T07:15:56.297Z,33.60
2017-06-22T07:16:50.352Z,33.29
2017-06-22T07:17:44.404Z,33.24
2017-06-22T07:18:44.564Z,33.01
2017-06-22T07:19:33.657Z,32.67
2017-06-22T07:20:27.703Z,32.56
2017-06-22T07:21:22.816Z,32.76
2017-06-22T07:22:22.838Z,33.02
2017-06-22T07:23:12.044Z,33.40
2017-06-22T07:24:00.040Z,33.78
2017-06-22T07:24:54.137Z,34.14
2017-06-22T07:25:42.201Z,34.48
2017-06-22T07:26:42.252Z,34.86
2017-06-22T07:27:48.357Z,34.62
2017-06-22T07:28:43.449Z,34.67
2017-06-22T07:29:37.562Z,34.37
2017-06-22T07:30:31.869Z,34.56
2017-06-22T07:31:25.708Z,34.92
2017-06-22T07:32:20.765Z,35.06
2017-06-22T07:33:15.063Z,35.07
2017-06-22T07:34:14.963Z,35.54
2017-06-22T07:35:10.065Z,35.78
2017-06-22T07:36:05.383Z,35.58
2017-06-22T07:36:59.191Z,35.24
2017-06-22T07:37:54.248Z,35.33
2017-06-22T07:38:43.365Z,35.27
2017-06-22T07:39:38.456Z,35.25
2017-06-22T07:40:33.530Z,35.25
2017-06-22T07:41:22.186Z,35.18
2017-06-22T07:42:21.723Z,34.74
2017-06-22T07:43:09.825Z,33.85
2017-06-22T07:44:04.893Z,33.27
2017-06-22T07:44:58.936Z,32.62
2017-06-22T07:45:53.029Z,32.22
2017-06-22T07:46:53.131Z,32.10
2017-06-22T07:47:54.223Z,32.41
2017-06-22T07:48:54.282Z,32.48
2017-06-22T07:49:54.372Z,32.21
2017-06-22T07:51:00.437Z,32.48
2017-06-22T07:51:54.515Z,32.60
2017-06-22T07:52:42.611Z,32.62
2017-06-22T07:53:30.722Z,32.91
2017-06-22T07:54:30.800Z,33.08
2017-06-22T07:55:24.876Z,33.38
2017-06-22T07:56:18.925Z,33.56
2017-06-22T07:57:13.101Z,33.95
2017-06-22T07:58:13.158Z,34.45
2017-06-22T07:59:02.011Z,34.84
2017-06-22T07:59:51.057Z,34.82
2017-06-22T08:00:46.291Z,34.80
2017-06-22T08:01:35.365Z,34.75
2017-06-22T08:02:41.454Z,34.57
2017-06-22T08:03:35.594Z,34.68
2017-06-22T08:04:29.722Z,34.65
2017-06-22T08:05:17.832Z,34.79
2017-06-22T08:06:06.884Z,34.92
2017-06-22T08:06:55.973Z,35.34
2017-06-22T08:07:51.097Z,35.75
2017-06-22T08:08:51.133Z,35.51
2017-06-22T08:09:50.970Z,35.44
2017-06-22T08:10:40.248Z,35.41
2017-06-22T08:11:41.405Z,34.84
2017-06-22T08:12:35.536Z,34.05
2017-06-22T08:13:29.358Z,33.49
2017-06-22T08:14:29.568Z,32.81
2017-06-22T08:15:30.577Z,32.32
2017-06-22T08:16:24.565Z,31.94
2017-06-22T08:17:24.608Z,31.93
2017-06-22T08:18:18.959Z,32.51
2017-06-22T08:19:08.328Z,33.07
2017-06-22T08:20:08.169Z,33.79
2017-06-22T08:21:08.183Z,34.41
2017-06-22T08:22:08.352Z,34.92
2017-06-22T08:22:56.327Z,35.54
2017-06-22T08:23:45.430Z,36.12
2017-06-22T08:24:39.540Z,36.65
2017-06-22T08:25:33.637Z,37.08
2017-06-22T08:26:28.743Z,37.42
2017-06-22T08:27:22.999Z,37.09
2017-06-22T08:28:17.914Z,36.95
2017-06-22T08:29:12.984Z,37.21
2017-06-22T08:30:13.024Z,36.69
2017-06-22T08:31:02.142Z,36.56
2017-06-22T08:31:51.225Z,36.46
2017-06-22T08:32:45.325Z,36.42
2017-06-22T08:33:40.416Z,36.35
2017-06-22T08:34:29.534Z,36.28
2017-06-22T08:35:23.608Z,36.42
2017-06-22T08:36:18.702Z,36.56
2017-06-22T08:37:12.737Z,36.78
2017-06-22T08:38:06.856Z,36.99
2017-06-22T08:38:55.961Z,37.27
2017-06-22T08:39:50.002Z,37.52
2017-06-22T08:40:38.089Z,37.90
2017-06-22T08:41:26.226Z,38.14
2017-06-22T08:42:14.285Z,38.18
2017-06-22T08:43:02.377Z,38.41
2017-06-22T08:43:50.471Z,38.72
2017-06-22T08:44:44.584Z,38.60
2017-06-22T08:45:38.658Z,38.28
2017-06-22T08:46:32.765Z,38.17
2017-06-22T08:47:21.834Z,38.27
2017-06-22T08:48:21.935Z,38.07
2017-06-22T08:49:17.024Z,38.10
2017-06-22T08:50:17.113Z,38.21
2017-06-22T08:51:12.241Z,38.10
2017-06-22T08:52:07.281Z,38.30
2017-06-22T08:53:01.325Z,38.57
2017-06-22T08:53:50.512Z,38.63
2017-06-22T08:54:39.546Z,38.77
2017-06-22T08:55:34.631Z,38.60
2017-06-22T08:56:34.727Z,38.50
2017-06-22T08:57:29.776Z,38.34
2017-06-22T08:58:23.885Z,38.23
2017-06-22T08:59:23.979Z,38.22
2017-06-22T09:00:24.060Z,38.36
2017-06-22T09:01:13.174Z,38.14
2017-06-22T09:02:01.288Z,37.78
2017-06-22T09:02:56.428Z,37.80
2017-06-22T09:03:50.424Z,37.98
2017-06-22T09:04:38.663Z,37.74
2017-06-22T09:05:32.644Z,37.42
2017-06-22T09:06:27.726Z,37.71
2017-06-22T09:07:16.927Z,38.00
2017-06-22T09:08:10.878Z,38.41
2017-06-22T09:09:05.196Z,38.41
2017-06-22T09:09:59.371Z,38.20
2017-06-22T09:10:54.136Z,37.58
2017-06-22T09:11:48.280Z,37.73
2017-06-22T09:12:37.326Z,37.69
2017-06-22T09:13:31.399Z,37.65
2017-06-22T09:14:26.860Z,37.66
2017-06-22T09:15:21.592Z,37.81
2017-06-22T09:16:15.682Z,37.66
2017-06-22T09:17:10.826Z,37.57
2017-06-22T09:18:04.888Z,37.56
2017-06-22T09:18:58.980Z,37.73
2017-06-22T09:19:47.390Z,38.01
2017-06-22T09:20:42.148Z,38.02
2017-06-22T09:21:36.282Z,38.18
2017-06-22T09:22:30.480Z,38.57
2017-06-22T09:23:25.489Z,38.51
2017-06-22T09:24:14.530Z,38.07
2017-06-22T09:25:09.632Z,37.76
2017-06-22T09:26:09.707Z,37.70
2017-06-22T09:26:58.790Z,37.61
2017-06-22T09:27:53.880Z,37.51
2017-06-22T09:28:48.969Z,37.39
2017-06-22T09:29:38.081Z,37.33
2017-06-22T09:30:32.134Z,37.26
2017-06-22T09:31:27.261Z,37.05
2017-06-22T09:32:15.305Z,37.15
2017-06-22T09:33:09.435Z,36.93
2017-06-22T09:34:03.537Z,37.05
2017-06-22T09:34:57.674Z,37.24
2017-06-22T09:35:51.708Z,37.47
2017-06-22T09:36:45.838Z,37.13
2017-06-22T09:37:35.104Z,36.96
2017-06-22T09:38:29.936Z,36.86
2017-06-22T09:39:30.097Z,36.65
2017-06-22T09:40:24.156Z,36.78
2017-06-22T09:41:19.284Z,36.86
2017-06-22T09:42:07.367Z,36.76
2017-06-22T09:42:55.472Z,36.62
2017-06-22T09:43:49.521Z,36.77
2017-06-22T09:44:44.613Z,36.81
2017-06-22T09:45:33.721Z,37.04
2017-06-22T09:46:27.820Z,37.09
2017-06-22T09:47:21.864Z,36.81
2017-06-22T09:48:21.998Z,36.81
2017-06-22T09:49:10.042Z,36.69
2017-06-22T09:49:58.147Z,36.68
2017-06-22T09:50:58.254Z,36.38
2017-06-22T09:52:04.320Z,35.94
2017-06-22T09:53:04.426Z,35.72
2017-06-22T09:53:59.521Z,35.83
2017-06-22T09:54:59.573Z,35.87
2017-06-22T09:55:53.663Z,36.05
2017-06-22T09:56:53.775Z,36.32
2017-06-22T09:57:47.908Z,36.17
2017-06-22T09:58:41.951Z,36.27
2017-06-22T09:59:37.065Z,36.52
2017-06-22T10:00:26.144Z,36.66
2017-06-22T10:01:15.224Z,36.72
2017-06-22T10:02:09.295Z,36.79
2017-06-22T10:03:04.386Z,36.69
2017-06-22T10:03:52.648Z,36.61
2017-06-22T10:04:41.624Z,36.66
2017-06-22T10:05:30.690Z,36.67
2017-06-22T10:06:19.783Z,36.86
2017-06-22T10:07:08.868Z,36.97
2017-06-22T10:08:04.007Z,37.12
2017-06-22T10:08:53.035Z,36.92
2017-06-22T10:09:59.137Z,36.90
2017-06-22T10:10:53.238Z,36.91
2017-06-22T10:11:47.342Z,36.82
2017-06-22T10:12:41.609Z,36.84
2017-06-22T10:13:35.468Z,37.12
2017-06-22T10:14:35.594Z,37.36
2017-06-22T10:15:29.657Z,37.25
2017-06-22T10:16:24.841Z,37.21
2017-06-22T10:17:24.851Z,37.27
2017-06-22T10:18:24.930Z,37.15
2017-06-22T10:19:25.073Z,37.14
2017-06-22T10:20:19.121Z,37.21
2017-06-22T10:21:13.213Z,37.29
2017-06-22T10:22:07.340Z,37.01
2017-06-22T10:22:55.383Z,37.01
2017-06-22T10:23:50.460Z,37.00
2017-06-22T10:24:39.650Z,36.80
2017-06-22T10:25:39.653Z,36.36
2017-06-22T10:26:28.774Z,36.09
2017-06-22T10:27:16.864Z,35.91
2017-06-22T10:28:10.930Z,36.04
2017-06-22T10:29:00.046Z,36.01
2017-06-22T10:29:54.069Z,35.87
2017-06-22T10:30:49.204Z,35.91
2017-06-22T10:31:43.300Z,36.02
2017-06-22T10:32:32.424Z,36.19
2017-06-22T10:33:26.507Z,36.22
2017-06-22T10:34:20.567Z,36.21
2017-06-22T10:35:14.618Z,36.26
2017-06-22T10:36:03.763Z,36.39
2017-06-22T10:36:52.850Z,36.61
2017-06-22T10:37:47.960Z,36.75
2017-06-22T10:38:48.207Z,36.44
2017-06-22T10:39:43.091Z,36.34
2017-06-22T10:40:37.219Z,36.13
2017-06-22T10:41:31.253Z,35.70
2017-06-22T10:42:26.352Z,35.55
2017-06-22T10:43:21.433Z,35.35
2017-06-22T10:44:15.575Z,35.26
2017-06-22T10:45:09.632Z,35.51
2017-06-22T10:46:09.728Z,35.64
2017-06-22T10:47:10.822Z,35.89
2017-06-22T10:48:10.961Z,35.91
2017-06-22T10:49:05.016Z,35.69
2017-06-22T10:49:59.070Z,35.25
2017-06-22T10:50:59.181Z,35.29
2017-06-22T10:51:48.270Z,35.11
2017-06-22T10:52:42.373Z,35.12
2017-06-22T10:53:31.449Z,35.28
2017-06-22T10:54:25.524Z,35.27
2017-06-22T10:55:20.603Z,35.57
2017-06-22T10:56:20.704Z,35.94
2017-06-22T10:57:20.780Z,36.24
2017-06-22T10:58:14.914Z,36.53
2017-06-22T10:59:09.961Z,36.85
2017-06-22T11:00:04.072Z,36.98
2017-06-22T11:00:59.133Z,37.09
2017-06-22T11:01:53.255Z,37.30
2017-06-22T11:02:48.500Z,37.17
2017-06-22T11:03:42.432Z,37.19
2017-06-22T11:04:36.494Z,37.44
2017-06-22T11:05:24.578Z,37.79
2017-06-22T11:06:24.686Z,37.82
2017-06-22T11:07:19.755Z,37.72
2017-06-22T11:08:13.844Z,37.85
2017-06-22T11:09:01.927Z,37.99
2017-06-22T11:09:56.058Z,38.01
2017-06-22T11:10:50.079Z,37.85
2017-06-22T11:11:50.233Z,37.82
2017-06-22T11:12:50.262Z,37.50
2017-06-22T11:13:38.428Z,37.14
2017-06-22T11:14:32.503Z,37.19
2017-06-22T11:15:26.605Z,37.21
2017-06-22T11:16:26.664Z,36.91
2017-06-22T11:17:26.718Z,36.42
2017-06-22T11:18:27.296Z,36.53
2017-06-22T11:19:21.934Z,36.78
2017-06-22T11:20:17.056Z,36.69
2017-06-22T11:21:05.122Z,36.76
2017-06-22T11:21:59.225Z,36.92
2017-06-22T11:22:59.300Z,37.06
2017-06-22T11:23:54.367Z,37.01
2017-06-22T11:24:48.444Z,36.75
2017-06-22T11:25:36.520Z,36.70
2017-06-22T11:26:31.661Z,36.47
2017-06-22T11:27:19.758Z,36.36
2017-06-22T11:28:13.837Z,36.23
2017-06-22T11:29:01.956Z,36.19
2017-06-22T11:29:55.966Z,36.30
2017-06-22T11:30:50.036Z,35.96
2017-06-22T11:31:44.143Z,35.74
2017-06-22T11:32:33.254Z,35.77
2017-06-22T11:33:27.350Z,35.78
2017-06-22T11:34:27.670Z,35.40
2017-06-22T11:35:27.499Z,35.46
2017-06-22T11:36:27.545Z,35.78
2017-06-22T11:37:21.689Z,36.18
2017-06-22T11:38:15.751Z,36.46
2017-06-22T11:39:09.829Z,36.63
2017-06-22T11:40:03.914Z,36.90
2017-06-22T11:40:58.024Z,36.88
2017-06-22T11:41:47.101Z,37.05
2017-06-22T11:42:36.211Z,37.49
2017-06-22T11:43:25.286Z,37.47